River Ridge, Louisiana
Current Conditions -  °F | °C
As of 8:53 AM on Saturday 22 Nov 2014 (Local Time) from KMSY Reporting Station
Broken Clouds Broken Clouds  
Wind Chill: 63°   Ceiling: 25000
Heat Index: 63°   Visibility: 10mi
Dew Point: 54°   Wind: 12mph
Humidity: 72%   Direction: 90°E
Pressure: 30.2"   Gusts: NA
Location:  29.9536°N, 90.2034°W
Report Text: KMSY 221453Z 09010KT 10SM BKN250 17/12 A3020 RMK AO2 SLP230 T01720122 50001
Loading
Personal Weather Stations






























Interactive Weather Map New forecast layout! Learn more

10-Day Weather Forecast

Advertisements
Track Severe Weather on mobile